sensor_id;sensor_type;location;lat;lon;timestamp;temperature;humidity
5792;DHT22;2922;53.482;10.006;2024-01-30T07:30:22;2.40;99.90
5792;DHT22;2922;53.482;10.006;2024-01-30T07:32:48;2.50;99.90
5792;DHT22;2922;53.482;10.006;2024-01-30T07:35:14;2.50;99.90
5792;DHT22;2922;53.482;10.006;2024-01-30T07:37:40;2.60;99.90
5792;DHT22;2922;53.482;10.006;2024-01-30T07:40:06;2.60;99.90
5792;DHT22;2922;53.482;10.006;2024-01-30T07:42:32;2.60;99.90
5792;DHT22;2922;53.482;10.006;2024-01-30T07:44:59;2.70;99.90
5792;DHT22;2922;53.482;10.006;2024-01-30T07:47:24;2.70;99.90
5792;DHT22;2922;53.482;10.006;2024-01-30T07:49:50;2.80;99.90
5792;DHT22;2922;53.482;10.006;2024-01-30T07:52:16;2.90;99.90
5792;DHT22;2922;53.482;10.006;2024-01-30T07:54:48;2.90;99.90
5792;DHT22;2922;53.482;10.006;2024-01-30T07:57:14;3.00;99.90
5792;DHT22;2922;53.482;10.006;2024-01-30T07:59:42;3.10;99.90
5792;DHT22;2922;53.482;10.006;2024-01-30T08:02:08;3.10;99.90
5792;DHT22;2922;53.482;10.006;2024-01-30T08:04:33;3.20;99.90
5792;DHT22;2922;53.482;10.006;2024-01-30T08:06:59;3.20;99.90
5792;DHT22;2922;53.482;10.006;2024-01-30T08:09:24;3.30;99.90
5792;DHT22;2922;53.482;10.006;2024-01-30T08:11:50;3.40;99.90
5792;DHT22;2922;53.482;10.006;2024-01-30T08:14:15;3.40;99.90
5792;DHT22;2922;53.482;10.006;2024-01-30T08:16:41;3.40;99.90
5792;DHT22;2922;53.482;10.006;2024-01-30T08:19:06;3.50;99.90
5792;DHT22;2922;53.482;10.006;2024-01-30T08:21:32;3.50;99.90
5792;DHT22;2922;53.482;10.006;2024-01-30T08:24:05;3.60;99.90
5792;DHT22;2922;53.482;10.006;2024-01-30T08:26:31;3.60;99.90
5792;DHT22;2922;53.482;10.006;2024-01-30T08:28:57;3.70;99.90
5792;DHT22;2922;53.482;10.006;2024-01-30T08:31:23;3.70;99.90
5792;DHT22;2922;53.482;10.006;2024-01-30T08:33:48;3.70;99.90
5792;DHT22;2922;53.482;10.006;2024-01-30T08:36:15;3.80;99.90
5792;DHT22;2922;53.482;10.006;2024-01-30T08:38:40;3.80;99.90
5792;DHT22;2922;53.482;10.006;2024-01-30T08:41:07;3.80;99.90
5792;DHT22;2922;53.482;10.006;2024-01-30T08:43:33;3.90;99.90
5792;DHT22;2922;53.482;10.006;2024-01-30T08:45:59;3.90;99.90
5792;DHT22;2922;53.482;10.006;2024-01-30T08:48:25;3.90;99.90
5792;DHT22;2922;53.482;10.006;2024-01-30T08:50:51;4.00;99.90
5792;DHT22;2922;53.482;10.006;2024-01-30T08:53:16;4.00;99.90
5792;DHT22;2922;53.482;10.006;2024-01-30T08:55:42;4.00;99.90
5792;DHT22;2922;53.482;10.006;2024-01-30T08:58:07;4.10;99.90
5792;DHT22;2922;53.482;10.006;2024-01-30T09:00:33;4.20;99.90
5792;DHT22;2922;53.482;10.006;2024-01-30T09:02:59;4.30;99.90
5792;DHT22;2922;53.482;10.006;2024-01-30T09:05:24;4.40;99.90
5792;DHT22;2922;53.482;10.006;2024-01-30T09:07:50;4.40;99.90
5792;DHT22;2922;53.482;10.006;2024-01-30T09:10:15;4.50;99.90
5792;DHT22;2922;53.482;10.006;2024-01-30T09:12:41;4.50;99.90
5792;DHT22;2922;53.482;10.006;2024-01-30T09:15:07;4.50;99.90
5792;DHT22;2922;53.482;10.006;2024-01-30T09:17:33;4.60;99.90
5792;DHT22;2922;53.482;10.006;2024-01-30T09:19:58;4.60;99.90
5792;DHT22;2922;53.482;10.006;2024-01-30T09:22:24;4.70;99.90
5792;DHT22;2922;53.482;10.006;2024-01-30T09:24:50;4.70;99.90
5792;DHT22;2922;53.482;10.006;2024-01-30T09:27:15;4.80;99.90
5792;DHT22;2922;53.482;10.006;2024-01-30T09:29:41;4.80;99.90
5792;DHT22;2922;53.482;10.006;2024-01-30T09:32:07;4.80;99.90
5792;DHT22;2922;53.482;10.006;2024-01-30T09:34:34;4.90;99.90
5792;DHT22;2922;53.482;10.006;2024-01-30T09:36:59;4.90;99.90
5792;DHT22;2922;53.482;10.006;2024-01-30T09:39:26;4.90;99.90
5792;DHT22;2922;53.482;10.006;2024-01-30T09:42:17;5.00;99.90
5792;DHT22;2922;53.482;10.006;2024-01-30T09:44:47;5.00;99.90
5792;DHT22;2922;53.482;10.006;2024-01-30T09:47:17;5.10;99.90
5792;DHT22;2922;53.482;10.006;2024-01-30T09:49:44;5.10;99.90
5792;DHT22;2922;53.482;10.006;2024-01-30T09:52:09;5.20;99.90
5792;DHT22;2922;53.482;10.006;2024-01-30T09:54:36;5.20;99.90
5792;DHT22;2922;53.482;10.006;2024-01-30T09:57:03;5.30;99.90
5792;DHT22;2922;53.482;10.006;2024-01-30T09:59:29;5.30;99.90
5792;DHT22;2922;53.482;10.006;2024-01-30T10:01:55;5.40;99.90
5792;DHT22;2922;53.482;10.006;2024-01-30T10:04:22;5.50;99.90
5792;DHT22;2922;53.482;10.006;2024-01-30T10:06:47;5.60;99.90
5792;DHT22;2922;53.482;10.006;2024-01-30T10:09:13;5.70;99.90
5792;DHT22;2922;53.482;10.006;2024-01-30T10:11:39;5.70;99.90
5792;DHT22;2922;53.482;10.006;2024-01-30T10:14:04;5.80;99.90
5792;DHT22;2922;53.482;10.006;2024-01-30T10:16:30;5.90;99.90
5792;DHT22;2922;53.482;10.006;2024-01-30T10:18:56;6.00;99.90
5792;DHT22;2922;53.482;10.006;2024-01-30T10:21:21;6.00;99.90
5792;DHT22;2922;53.482;10.006;2024-01-30T10:23:47;6.10;99.90
5792;DHT22;2922;53.482;10.006;2024-01-30T10:26:13;6.20;99.90
5792;DHT22;2922;53.482;10.006;2024-01-30T10:28:39;6.20;99.90
5792;DHT22;2922;53.482;10.006;2024-01-30T10:31:04;6.30;99.90
5792;DHT22;2922;53.482;10.006;2024-01-30T10:33:30;6.30;99.90
5792;DHT22;2922;53.482;10.006;2024-01-30T10:36:03;6.40;99.90
5792;DHT22;2922;53.482;10.006;2024-01-30T10:38:30;6.40;99.90
5792;DHT22;2922;53.482;10.006;2024-01-30T10:41:00;6.50;99.90
5792;DHT22;2922;53.482;10.006;2024-01-30T10:43:35;6.50;99.90
5792;DHT22;2922;53.482;10.006;2024-01-30T10:46:20;6.60;99.90
5792;DHT22;2922;53.482;10.006;2024-01-30T10:48:57;6.70;99.90
5792;DHT22;2922;53.482;10.006;2024-01-30T10:51:27;6.70;99.90
5792;DHT22;2922;53.482;10.006;2024-01-30T10:53:53;6.80;99.90
5792;DHT22;2922;53.482;10.006;2024-01-30T10:56:21;6.80;99.90
5792;DHT22;2922;53.482;10.006;2024-01-30T10:58:51;6.90;99.90
5792;DHT22;2922;53.482;10.006;2024-01-30T11:01:23;6.90;99.90
5792;DHT22;2922;53.482;10.006;2024-01-30T11:03:53;7.00;99.90
5792;DHT22;2922;53.482;10.006;2024-01-30T11:06:26;7.00;99.90
5792;DHT22;2922;53.482;10.006;2024-01-30T11:09:02;7.10;99.90
5792;DHT22;2922;53.482;10.006;2024-01-30T11:11:57;7.10;99.90
5792;DHT22;2922;53.482;10.006;2024-01-30T11:14:28;7.20;99.90
5792;DHT22;2922;53.482;10.006;2024-01-30T11:16:57;7.20;99.90
5792;DHT22;2922;53.482;10.006;2024-01-30T11:19:25;7.30;99.90
5792;DHT22;2922;53.482;10.006;2024-01-30T11:21:54;7.30;99.90
5792;DHT22;2922;53.482;10.006;2024-01-30T11:24:20;7.40;99.90
5792;DHT22;2922;53.482;10.006;2024-01-30T11:26:49;7.40;99.90
5792;DHT22;2922;53.482;10.006;2024-01-30T11:29:20;7.40;99.90
5792;DHT22;2922;53.482;10.006;2024-01-30T11:31:53;7.50;99.90
5792;DHT22;2922;53.482;10.006;2024-01-30T11:34:19;7.60;99.90
5792;DHT22;2922;53.482;10.006;2024-01-30T11:36:51;7.60;99.90
5792;DHT22;2922;53.482;10.006;2024-01-30T11:39:20;7.60;99.90
5792;DHT22;2922;53.482;10.006;2024-01-30T11:41:46;7.70;99.90
5792;DHT22;2922;53.482;10.006;2024-01-30T11:44:13;7.70;99.90
5792;DHT22;2922;53.482;10.006;2024-01-30T11:46:38;7.80;99.90
5792;DHT22;2922;53.482;10.006;2024-01-30T11:49:04;7.80;99.90
5792;DHT22;2922;53.482;10.006;2024-01-30T11:51:31;7.80;99.90
5792;DHT22;2922;53.482;10.006;2024-01-30T11:53:57;7.90;99.90
5792;DHT22;2922;53.482;10.006;2024-01-30T11:56:24;7.90;99.90
5792;DHT22;2922;53.482;10.006;2024-01-30T11:58:50;7.90;99.90
5792;DHT22;2922;53.482;10.006;2024-01-30T12:01:17;8.00;99.90
5792;DHT22;2922;53.482;10.006;2024-01-30T12:03:49;8.00;99.90
5792;DHT22;2922;53.482;10.006;2024-01-30T12:06:15;8.10;99.90
5792;DHT22;2922;53.482;10.006;2024-01-30T12:08:41;8.10;99.90
5792;DHT22;2922;53.482;10.006;2024-01-30T12:11:07;8.20;99.90
5792;DHT22;2922;53.482;10.006;2024-01-30T12:13:34;8.30;99.90
5792;DHT22;2922;53.482;10.006;2024-01-30T12:16:00;8.40;99.90
5792;DHT22;2922;53.482;10.006;2024-01-30T12:18:26;8.50;99.90
5792;DHT22;2922;53.482;10.006;2024-01-30T12:20:59;8.50;99.90
5792;DHT22;2922;53.482;10.006;2024-01-30T12:23:26;8.60;99.90
5792;DHT22;2922;53.482;10.006;2024-01-30T12:25:52;8.70;99.90
5792;DHT22;2922;53.482;10.006;2024-01-30T12:28:19;8.80;99.90
5792;DHT22;2922;53.482;10.006;2024-01-30T12:30:44;8.80;99.90
5792;DHT22;2922;53.482;10.006;2024-01-30T12:33:18;8.90;99.90
5792;DHT22;2922;53.482;10.006;2024-01-30T12:35:47;8.90;99.90
5792;DHT22;2922;53.482;10.006;2024-01-30T12:38:14;9.00;99.90
5792;DHT22;2922;53.482;10.006;2024-01-30T12:40:40;9.10;99.90
5792;DHT22;2922;53.482;10.006;2024-01-30T12:43:06;9.10;99.90
5792;DHT22;2922;53.482;10.006;2024-01-30T12:45:31;9.20;99.90
5792;DHT22;2922;53.482;10.006;2024-01-30T12:47:57;9.20;99.90
5792;DHT22;2922;53.482;10.006;2024-01-30T12:50:23;9.30;99.90
5792;DHT22;2922;53.482;10.006;2024-01-30T12:52:49;9.30;99.90
5792;DHT22;2922;53.482;10.006;2024-01-30T12:55:15;9.30;99.90
5792;DHT22;2922;53.482;10.006;2024-01-30T12:57:40;9.40;99.90
5792;DHT22;2922;53.482;10.006;2024-01-30T13:00:07;9.40;99.90
5792;DHT22;2922;53.482;10.006;2024-01-30T13:02:36;9.40;99.90
5792;DHT22;2922;53.482;10.006;2024-01-30T13:05:03;9.40;99.90
5792;DHT22;2922;53.482;10.006;2024-01-30T13:07:29;9.50;99.90
5792;DHT22;2922;53.482;10.006;2024-01-30T13:09:56;9.50;99.90
5792;DHT22;2922;53.482;10.006;2024-01-30T13:12:21;9.50;99.90
5792;DHT22;2922;53.482;10.006;2024-01-30T13:14:47;9.50;99.90
5792;DHT22;2922;53.482;10.006;2024-01-30T13:17:13;9.50;99.90
5792;DHT22;2922;53.482;10.006;2024-01-30T13:19:38;9.50;99.90
5792;DHT22;2922;53.482;10.006;2024-01-30T13:22:04;9.50;99.90
5792;DHT22;2922;53.482;10.006;2024-01-30T13:24:29;9.50;99.90
5792;DHT22;2922;53.482;10.006;2024-01-30T13:26:55;9.50;99.90
5792;DHT22;2922;53.482;10.006;2024-01-30T13:29:20;9.50;99.90
5792;DHT22;2922;53.482;10.006;2024-01-30T13:31:46;9.50;99.90
5792;DHT22;2922;53.482;10.006;2024-01-30T13:34:12;9.50;99.90
5792;DHT22;2922;53.482;10.006;2024-01-30T13:36:39;9.50;99.90
5792;DHT22;2922;53.482;10.006;2024-01-30T13:39:05;9.50;99.90
5792;DHT22;2922;53.482;10.006;2024-01-30T13:41:35;9.60;99.90
5792;DHT22;2922;53.482;10.006;2024-01-30T13:44:01;9.50;99.90
5792;DHT22;2922;53.482;10.006;2024-01-30T13:46:29;9.60;99.90
5792;DHT22;2922;53.482;10.006;2024-01-30T13:48:54;9.50;99.90
5792;DHT22;2922;53.482;10.006;2024-01-30T13:51:20;9.60;99.90
5792;DHT22;2922;53.482;10.006;2024-01-30T13:53:45;9.50;99.90
5792;DHT22;2922;53.482;10.006;2024-01-30T13:56:11;9.60;99.90
5792;DHT22;2922;53.482;10.006;2024-01-30T13:58:37;9.50;99.90
5792;DHT22;2922;53.482;10.006;2024-01-30T14:01:02;9.60;99.90
5792;DHT22;2922;53.482;10.006;2024-01-30T14:03:28;9.60;99.90
5792;DHT22;2922;53.482;10.006;2024-01-30T14:05:54;9.60;99.90
5792;DHT22;2922;53.482;10.006;2024-01-30T14:08:20;9.60;99.90
5792;DHT22;2922;53.482;10.006;2024-01-30T14:10:47;9.60;99.90
5792;DHT22;2922;53.482;10.006;2024-01-30T14:13:12;9.60;99.90
5792;DHT22;2922;53.482;10.006;2024-01-30T14:15:38;9.60;99.90
5792;DHT22;2922;53.482;10.006;2024-01-30T14:18:04;9.60;99.90
5792;DHT22;2922;53.482;10.006;2024-01-30T14:20:30;9.60;99.90
5792;DHT22;2922;53.482;10.006;2024-01-30T14:22:56;9.60;99.90
5792;DHT22;2922;53.482;10.006;2024-01-30T14:25:22;9.60;99.90
5792;DHT22;2922;53.482;10.006;2024-01-30T14:27:48;9.60;99.90
5792;DHT22;2922;53.482;10.006;2024-01-30T14:30:13;9.70;99.90
5792;DHT22;2922;53.482;10.006;2024-01-30T14:32:39;9.70;99.90
5792;DHT22;2922;53.482;10.006;2024-01-30T14:35:06;9.70;99.90
5792;DHT22;2922;53.482;10.006;2024-01-30T14:37:31;9.70;99.90
5792;DHT22;2922;53.482;10.006;2024-01-30T14:39:57;9.70;99.90
5792;DHT22;2922;53.482;10.006;2024-01-30T14:42:22;9.70;99.90
5792;DHT22;2922;53.482;10.006;2024-01-30T14:44:48;9.70;99.90
5792;DHT22;2922;53.482;10.006;2024-01-30T14:47:14;9.70;99.90
5792;DHT22;2922;53.482;10.006;2024-01-30T14:49:40;9.70;99.90
5792;DHT22;2922;53.482;10.006;2024-01-30T14:52:05;9.70;99.90
5792;DHT22;2922;53.482;10.006;2024-01-30T14:54:31;9.70;99.90
5792;DHT22;2922;53.482;10.006;2024-01-30T14:56:57;9.70;99.90
5792;DHT22;2922;53.482;10.006;2024-01-30T14:59:23;9.70;99.90
5792;DHT22;2922;53.482;10.006;2024-01-30T15:01:48;9.80;99.90
5792;DHT22;2922;53.482;10.006;2024-01-30T15:04:14;9.70;99.90
5792;DHT22;2922;53.482;10.006;2024-01-30T15:06:40;9.80;99.90
5792;DHT22;2922;53.482;10.006;2024-01-30T15:09:11;9.80;99.90
5792;DHT22;2922;53.482;10.006;2024-01-30T15:11:48;9.80;99.90
5792;DHT22;2922;53.482;10.006;2024-01-30T15:14:15;9.80;99.90
5792;DHT22;2922;53.482;10.006;2024-01-30T15:16:40;9.80;99.90
5792;DHT22;2922;53.482;10.006;2024-01-30T15:19:06;9.80;99.90
5792;DHT22;2922;53.482;10.006;2024-01-30T15:21:32;9.80;99.90
5792;DHT22;2922;53.482;10.006;2024-01-30T15:23:58;9.90;99.90
5792;DHT22;2922;53.482;10.006;2024-01-30T15:26:23;9.80;99.90
5792;DHT22;2922;53.482;10.006;2024-01-30T15:28:49;9.90;99.90
5792;DHT22;2922;53.482;10.006;2024-01-30T15:31:14;9.80;99.90
5792;DHT22;2922;53.482;10.006;2024-01-30T15:33:40;9.90;99.90
5792;DHT22;2922;53.482;10.006;2024-01-30T15:36:07;9.90;99.90
5792;DHT22;2922;53.482;10.006;2024-01-30T15:38:34;9.90;99.90
5792;DHT22;2922;53.482;10.006;2024-01-30T15:40:59;10.00;99.90
5792;DHT22;2922;53.482;10.006;2024-01-30T15:43:26;9.90;99.90
5792;DHT22;2922;53.482;10.006;2024-01-30T15:45:51;10.00;99.90
5792;DHT22;2922;53.482;10.006;2024-01-30T15:48:18;10.00;99.90
5792;DHT22;2922;53.482;10.006;2024-01-30T15:50:44;10.10;99.90
5792;DHT22;2922;53.482;10.006;2024-01-30T15:53:09;10.10;99.90
5792;DHT22;2922;53.482;10.006;2024-01-30T15:55:35;10.10;99.90
5792;DHT22;2922;53.482;10.006;2024-01-30T15:58:00;10.10;99.90
5792;DHT22;2922;53.482;10.006;2024-01-30T16:00:26;10.10;99.90
5792;DHT22;2922;53.482;10.006;2024-01-30T16:02:52;10.10;99.90
5792;DHT22;2922;53.482;10.006;2024-01-30T16:05:17;10.10;99.90
5792;DHT22;2922;53.482;10.006;2024-01-30T16:07:43;10.10;99.90
5792;DHT22;2922;53.482;10.006;2024-01-30T16:10:11;10.10;99.90
5792;DHT22;2922;53.482;10.006;2024-01-30T16:12:44;10.10;99.90
5792;DHT22;2922;53.482;10.006;2024-01-30T16:15:15;10.10;99.90
5792;DHT22;2922;53.482;10.006;2024-01-30T16:17:41;10.00;99.90
5792;DHT22;2922;53.482;10.006;2024-01-30T16:20:08;10.00;99.90
5792;DHT22;2922;53.482;10.006;2024-01-30T16:22:34;10.00;99.90
5792;DHT22;2922;53.482;10.006;2024-01-30T16:24:59;10.00;99.90
5792;DHT22;2922;53.482;10.006;2024-01-30T16:27:25;10.00;99.90
5792;DHT22;2922;53.482;10.006;2024-01-30T16:29:50;9.90;99.90
5792;DHT22;2922;53.482;10.006;2024-01-30T16:32:16;10.00;99.90
5792;DHT22;2922;53.482;10.006;2024-01-30T16:34:42;9.90;99.90
5792;DHT22;2922;53.482;10.006;2024-01-30T16:37:08;10.00;99.90
5792;DHT22;2922;53.482;10.006;2024-01-30T16:39:33;10.00;99.90
5792;DHT22;2922;53.482;10.006;2024-01-30T16:41:59;10.00;99.90
5792;DHT22;2922;53.482;10.006;2024-01-30T16:44:24;10.00;99.90
5792;DHT22;2922;53.482;10.006;2024-01-30T16:46:50;10.00;99.90
5792;DHT22;2922;53.482;10.006;2024-01-30T16:49:16;10.00;99.90
5792;DHT22;2922;53.482;10.006;2024-01-30T16:51:42;10.00;99.90
5792;DHT22;2922;53.482;10.006;2024-01-30T16:54:08;10.00;99.90
5792;DHT22;2922;53.482;10.006;2024-01-30T16:56:33;10.00;99.90
5792;DHT22;2922;53.482;10.006;2024-01-30T16:58:59;10.00;99.90
5792;DHT22;2922;53.482;10.006;2024-01-30T17:01:24;10.00;99.90
5792;DHT22;2922;53.482;10.006;2024-01-30T17:03:50;9.90;99.90
5792;DHT22;2922;53.482;10.006;2024-01-30T17:06:16;9.90;99.90
5792;DHT22;2922;53.482;10.006;2024-01-30T17:08:41;9.90;99.90
5792;DHT22;2922;53.482;10.006;2024-01-30T17:11:07;10.00;99.90
5792;DHT22;2922;53.482;10.006;2024-01-30T17:13:34;10.00;99.90
5792;DHT22;2922;53.482;10.006;2024-01-30T17:16:00;10.00;99.90
5792;DHT22;2922;53.482;10.006;2024-01-30T17:18:25;9.90;99.90
5792;DHT22;2922;53.482;10.006;2024-01-30T17:20:51;10.00;99.90
5792;DHT22;2922;53.482;10.006;2024-01-30T17:23:17;10.00;99.90
5792;DHT22;2922;53.482;10.006;2024-01-30T17:25:42;10.00;99.90
5792;DHT22;2922;53.482;10.006;2024-01-30T17:28:08;10.00;99.90
5792;DHT22;2922;53.482;10.006;2024-01-30T17:30:35;10.00;99.90
5792;DHT22;2922;53.482;10.006;2024-01-30T17:33:02;10.00;99.90
5792;DHT22;2922;53.482;10.006;2024-01-30T17:35:28;10.00;99.90
5792;DHT22;2922;53.482;10.006;2024-01-30T17:37:53;10.00;99.90
5792;DHT22;2922;53.482;10.006;2024-01-30T17:40:19;10.00;99.90
5792;DHT22;2922;53.482;10.006;2024-01-30T17:42:44;10.00;99.90
5792;DHT22;2922;53.482;10.006;2024-01-30T17:45:10;10.00;99.90
5792;DHT22;2922;53.482;10.006;2024-01-30T17:47:36;10.00;99.90
5792;DHT22;2922;53.482;10.006;2024-01-30T17:50:02;10.10;99.90
5792;DHT22;2922;53.482;10.006;2024-01-30T17:52:27;10.10;99.90
5792;DHT22;2922;53.482;10.006;2024-01-30T17:54:53;10.10;99.90
5792;DHT22;2922;53.482;10.006;2024-01-30T17:57:19;10.10;99.90
5792;DHT22;2922;53.482;10.006;2024-01-30T17:59:44;10.10;99.90
5792;DHT22;2922;53.482;10.006;2024-01-30T18:02:10;10.20;99.90
5792;DHT22;2922;53.482;10.006;2024-01-30T18:04:37;10.20;99.90
5792;DHT22;2922;53.482;10.006;2024-01-30T18:07:06;10.20;99.90
5792;DHT22;2922;53.482;10.006;2024-01-30T18:09:32;10.20;99.90
5792;DHT22;2922;53.482;10.006;2024-01-30T18:11:58;10.20;99.90
5792;DHT22;2922;53.482;10.006;2024-01-30T18:14:23;10.20;99.90
5792;DHT22;2922;53.482;10.006;2024-01-30T18:16:49;10.20;99.90
5792;DHT22;2922;53.482;10.006;2024-01-30T18:19:15;10.20;99.90
5792;DHT22;2922;53.482;10.006;2024-01-30T18:21:41;10.20;99.90
5792;DHT22;2922;53.482;10.006;2024-01-30T18:24:07;10.20;99.90
5792;DHT22;2922;53.482;10.006;2024-01-30T18:26:33;10.20;99.90
5792;DHT22;2922;53.482;10.006;2024-01-30T18:28:58;10.20;99.90
5792;DHT22;2922;53.482;10.006;2024-01-30T18:31:24;10.20;99.90
5792;DHT22;2922;53.482;10.006;2024-01-30T18:33:50;10.20;99.90
5792;DHT22;2922;53.482;10.006;2024-01-30T18:36:20;10.20;99.90
5792;DHT22;2922;53.482;10.006;2024-01-30T18:38:46;10.20;99.90
5792;DHT22;2922;53.482;10.006;2024-01-30T18:41:13;10.20;99.90
5792;DHT22;2922;53.482;10.006;2024-01-30T18:43:39;10.20;99.90
5792;DHT22;2922;53.482;10.006;2024-01-30T18:46:04;10.20;99.90
5792;DHT22;2922;53.482;10.006;2024-01-30T18:48:30;10.20;99.90
5792;DHT22;2922;53.482;10.006;2024-01-30T18:50:56;10.20;99.90
5792;DHT22;2922;53.482;10.006;2024-01-30T18:53:22;10.20;99.90
5792;DHT22;2922;53.482;10.006;2024-01-30T18:55:47;10.20;99.90
5792;DHT22;2922;53.482;10.006;2024-01-30T18:58:16;10.20;99.90
5792;DHT22;2922;53.482;10.006;2024-01-30T19:00:41;10.20;99.90
5792;DHT22;2922;53.482;10.006;2024-01-30T19:03:07;10.10;99.90
5792;DHT22;2922;53.482;10.006;2024-01-30T19:05:33;10.10;99.90
5792;DHT22;2922;53.482;10.006;2024-01-30T19:07:59;10.10;99.90
5792;DHT22;2922;53.482;10.006;2024-01-30T19:10:25;10.10;99.90
5792;DHT22;2922;53.482;10.006;2024-01-30T19:12:52;10.10;99.90
5792;DHT22;2922;53.482;10.006;2024-01-30T19:15:18;10.10;99.90
5792;DHT22;2922;53.482;10.006;2024-01-30T19:17:44;10.10;99.90
5792;DHT22;2922;53.482;10.006;2024-01-30T19:20:10;10.10;99.90
5792;DHT22;2922;53.482;10.006;2024-01-30T19:22:36;10.10;99.90
5792;DHT22;2922;53.482;10.006;2024-01-30T19:25:01;10.00;99.90
5792;DHT22;2922;53.482;10.006;2024-01-30T19:27:30;10.00;99.90
5792;DHT22;2922;53.482;10.006;2024-01-30T19:29:56;10.00;99.90
5792;DHT22;2922;53.482;10.006;2024-01-30T19:32:22;10.00;99.90
5792;DHT22;2922;53.482;10.006;2024-01-30T19:34:48;10.00;99.90
5792;DHT22;2922;53.482;10.006;2024-01-30T19:37:13;10.00;99.90
5792;DHT22;2922;53.482;10.006;2024-01-30T19:39:39;9.90;99.90
5792;DHT22;2922;53.482;10.006;2024-01-30T19:42:04;9.90;99.90
5792;DHT22;2922;53.482;10.006;2024-01-30T19:44:30;9.90;99.90
5792;DHT22;2922;53.482;10.006;2024-01-30T19:46:56;9.80;99.90
5792;DHT22;2922;53.482;10.006;2024-01-30T19:49:26;9.80;99.90
5792;DHT22;2922;53.482;10.006;2024-01-30T19:51:52;9.80;99.90
5792;DHT22;2922;53.482;10.006;2024-01-30T19:54:18;9.80;99.90
5792;DHT22;2922;53.482;10.006;2024-01-30T19:56:44;9.80;99.90
5792;DHT22;2922;53.482;10.006;2024-01-30T19:59:10;9.80;99.90
5792;DHT22;2922;53.482;10.006;2024-01-30T20:01:36;9.70;99.90
5792;DHT22;2922;53.482;10.006;2024-01-30T20:04:01;9.70;99.90
5792;DHT22;2922;53.482;10.006;2024-01-30T20:06:28;9.70;99.90
5792;DHT22;2922;53.482;10.006;2024-01-30T20:08:54;9.60;99.90
5792;DHT22;2922;53.482;10.006;2024-01-30T20:11:19;9.60;99.90
5792;DHT22;2922;53.482;10.006;2024-01-30T20:13:45;9.60;99.90
5792;DHT22;2922;53.482;10.006;2024-01-30T20:16:11;9.50;99.90
5792;DHT22;2922;53.482;10.006;2024-01-30T20:18:36;9.50;99.90
5792;DHT22;2922;53.482;10.006;2024-01-30T20:21:02;9.50;99.90
5792;DHT22;2922;53.482;10.006;2024-01-30T20:23:28;9.40;99.90
5792;DHT22;2922;53.482;10.006;2024-01-30T20:25:54;9.40;99.90
5792;DHT22;2922;53.482;10.006;2024-01-30T20:28:22;9.40;99.90
5792;DHT22;2922;53.482;10.006;2024-01-30T20:30:48;9.40;99.90
5792;DHT22;2922;53.482;10.006;2024-01-30T20:33:15;9.40;99.90
5792;DHT22;2922;53.482;10.006;2024-01-30T20:35:41;9.30;99.90
5792;DHT22;2922;53.482;10.006;2024-01-30T20:38:07;9.30;99.90
5792;DHT22;2922;53.482;10.006;2024-01-30T20:40:33;9.30;99.90
5792;DHT22;2922;53.482;10.006;2024-01-30T20:42:59;9.30;99.90
5792;DHT22;2922;53.482;10.006;2024-01-30T20:45:25;9.30;99.90
5792;DHT22;2922;53.482;10.006;2024-01-30T20:47:50;9.30;99.90
5792;DHT22;2922;53.482;10.006;2024-01-30T20:50:16;9.30;99.90
5792;DHT22;2922;53.482;10.006;2024-01-30T20:52:41;9.20;99.90
5792;DHT22;2922;53.482;10.006;2024-01-30T20:55:07;9.20;99.90
5792;DHT22;2922;53.482;10.006;2024-01-30T20:57:33;9.20;99.90
5792;DHT22;2922;53.482;10.006;2024-01-30T21:00:01;9.10;99.90
5792;DHT22;2922;53.482;10.006;2024-01-30T21:02:26;9.10;99.90
5792;DHT22;2922;53.482;10.006;2024-01-30T21:04:52;9.10;99.90
5792;DHT22;2922;53.482;10.006;2024-01-30T21:07:17;9.10;99.90
5792;DHT22;2922;53.482;10.006;2024-01-30T21:09:43;9.00;99.90
5792;DHT22;2922;53.482;10.006;2024-01-30T21:12:08;9.00;99.90
5792;DHT22;2922;53.482;10.006;2024-01-30T21:14:34;9.00;99.90
5792;DHT22;2922;53.482;10.006;2024-01-30T21:16:59;8.90;99.90
5792;DHT22;2922;53.482;10.006;2024-01-30T21:19:25;8.90;99.90
5792;DHT22;2922;53.482;10.006;2024-01-30T21:21:50;8.90;99.90
5792;DHT22;2922;53.482;10.006;2024-01-30T21:24:16;8.80;99.90
5792;DHT22;2922;53.482;10.006;2024-01-30T21:26:42;8.80;99.90
5792;DHT22;2922;53.482;10.006;2024-01-30T21:29:07;8.70;99.90
5792;DHT22;2922;53.482;10.006;2024-01-30T21:31:33;8.70;99.90
5792;DHT22;2922;53.482;10.006;2024-01-30T21:33:58;8.70;99.90
5792;DHT22;2922;53.482;10.006;2024-01-30T21:36:24;8.60;99.90
5792;DHT22;2922;53.482;10.006;2024-01-30T21:38:50;8.60;99.90
5792;DHT22;2922;53.482;10.006;2024-01-30T21:41:16;8.60;99.90
5792;DHT22;2922;53.482;10.006;2024-01-30T21:43:42;8.50;99.90
5792;DHT22;2922;53.482;10.006;2024-01-30T21:46:08;8.50;99.90
5792;DHT22;2922;53.482;10.006;2024-01-30T21:48:33;8.50;99.90
5792;DHT22;2922;53.482;10.006;2024-01-30T21:50:59;8.50;99.90
5792;DHT22;2922;53.482;10.006;2024-01-30T21:53:24;8.40;99.90
5792;DHT22;2922;53.482;10.006;2024-01-30T21:55:50;8.40;99.90
5792;DHT22;2922;53.482;10.006;2024-01-30T21:58:15;8.40;99.90
5792;DHT22;2922;53.482;10.006;2024-01-30T22:00:41;8.30;99.90
5792;DHT22;2922;53.482;10.006;2024-01-30T22:03:06;8.30;99.90
5792;DHT22;2922;53.482;10.006;2024-01-30T22:05:32;8.30;99.90
5792;DHT22;2922;53.482;10.006;2024-01-30T22:07:58;8.20;99.90
5792;DHT22;2922;53.482;10.006;2024-01-30T22:10:23;8.20;99.90
5792;DHT22;2922;53.482;10.006;2024-01-30T22:12:49;8.20;99.90
5792;DHT22;2922;53.482;10.006;2024-01-30T22:15:14;8.10;99.90
5792;DHT22;2922;53.482;10.006;2024-01-30T22:17:40;8.10;99.90
5792;DHT22;2922;53.482;10.006;2024-01-30T22:20:06;8.10;99.90
5792;DHT22;2922;53.482;10.006;2024-01-30T22:22:32;8.10;99.90
5792;DHT22;2922;53.482;10.006;2024-01-30T22:24:59;8.00;99.90
5792;DHT22;2922;53.482;10.006;2024-01-30T22:27:24;8.00;99.90
5792;DHT22;2922;53.482;10.006;2024-01-30T22:29:51;8.00;99.90
5792;DHT22;2922;53.482;10.006;2024-01-30T22:32:16;8.00;99.90
5792;DHT22;2922;53.482;10.006;2024-01-30T22:34:43;7.90;99.90
5792;DHT22;2922;53.482;10.006;2024-01-30T22:37:08;7.80;99.90
5792;DHT22;2922;53.482;10.006;2024-01-30T22:39:34;7.80;99.90
5792;DHT22;2922;53.482;10.006;2024-01-30T22:42:00;7.80;99.90
5792;DHT22;2922;53.482;10.006;2024-01-30T22:44:25;7.70;99.90
5792;DHT22;2922;53.482;10.006;2024-01-30T22:46:51;7.60;99.90
5792;DHT22;2922;53.482;10.006;2024-01-30T22:49:16;7.60;99.90
5792;DHT22;2922;53.482;10.006;2024-01-30T22:51:42;7.50;99.90
5792;DHT22;2922;53.482;10.006;2024-01-30T22:54:08;7.50;99.90
5792;DHT22;2922;53.482;10.006;2024-01-30T22:56:34;7.50;99.90
5792;DHT22;2922;53.482;10.006;2024-01-30T22:59:00;7.40;99.90
5792;DHT22;2922;53.482;10.006;2024-01-30T23:01:27;7.40;99.90
5792;DHT22;2922;53.482;10.006;2024-01-30T23:03:52;7.30;99.90
5792;DHT22;2922;53.482;10.006;2024-01-30T23:06:18;7.20;99.90
5792;DHT22;2922;53.482;10.006;2024-01-30T23:08:44;7.10;99.90
5792;DHT22;2922;53.482;10.006;2024-01-30T23:11:13;7.10;99.90
5792;DHT22;2922;53.482;10.006;2024-01-30T23:13:40;7.10;99.90
5792;DHT22;2922;53.482;10.006;2024-01-30T23:16:06;7.10;99.90
5792;DHT22;2922;53.482;10.006;2024-01-30T23:18:31;7.00;99.90
5792;DHT22;2922;53.482;10.006;2024-01-30T23:20:57;7.00;99.90